Avon By The Sea, New Jersey
Current Conditions -  °F | °C
As of 1:15 AM on Tuesday 21 Oct 2014 (Local Time) from KBLM Reporting Station
Clear Clear  
Wind Chill: 54°   Ceiling: Unl
Heat Index: 54°   Visibility: 10mi
Dew Point: 43°   Wind: 5mph
Humidity: 67%   Direction: 190°S
Pressure: 29.95"   Gusts: NA
Location:  40.19°N, 74.02°W
Report Text: KBLM 210515Z AUTO 19004KT 10SM CLR 12/06 A2995 RMK AO1
Loading
Personal Weather Stations






























Interactive Weather Map
Tropical Storm Tracking
New forecast layout! Learn more

10-Day Weather Forecast

Advertisements
Track Severe Weather on mobile